Time;durP1;ratioP1;P1;durP2;ratioP2;P2;SDS_P1;SDS_P2;PMS_P1;PMS_P2;Temp;Humidity;BMP_temperature;BMP_pressure;BME280_temperature;BME280_humidity;BME280_pressure;Samples;Min_cycle;Max_cycle;Signal;HPM_P1;HPM_P2
2023/09/09 00:02:09;;;;;;;6.95;4.00;;;;;;;;;;4382763;32;317118;-79
2023/09/09 00:04:37;;;;;;;6.28;3.40;;;;;;;;;;4373826;32;316858;-79
2023/09/09 00:07:04;;;;;;;8.20;4.80;;;;;;;;;;4379990;32;316884;-81
2023/09/09 00:09:32;;;;;;;11.02;4.05;;;;;;;;;;4368117;32;316687;-82
2023/09/09 00:12:01;;;;;;;6.78;4.15;;;;;;;;;;4380584;32;317737;-79
2023/09/09 00:14:30;;;;;;;9.10;4.65;;;;;;;;;;4370415;32;317017;-79
2023/09/09 00:16:58;;;;;;;7.05;3.83;;;;;;;;;;4381665;32;316930;-79
2023/09/09 00:19:25;;;;;;;5.55;3.92;;;;;;;;;;4371602;32;316972;-81
2023/09/09 00:21:53;;;;;;;6.10;4.12;;;;;;;;;;4376702;32;316775;-82
2023/09/09 00:24:21;;;;;;;4.75;3.53;;;;;;;;;;4372143;32;339099;-79
2023/09/09 00:26:48;;;;;;;6.37;3.78;;;;;;;;;;4381460;32;316888;-83
2023/09/09 00:29:17;;;;;;;5.95;4.10;;;;;;;;;;4382766;32;316895;-79
2023/09/09 00:31:44;;;;;;;5.32;3.92;;;;;;;;;;4367519;32;416413;-79
2023/09/09 00:34:12;;;;;;;7.80;3.62;;;;;;;;;;4384245;32;345430;-79
2023/09/09 00:36:39;;;;;;;6.90;3.95;;;;;;;;;;4373685;32;316879;-83
2023/09/09 00:39:08;;;;;;;7.60;4.18;;;;;;;;;;4385089;32;316876;-79
2023/09/09 00:41:35;;;;;;;9.18;4.18;;;;;;;;;;4368852;32;316812;-83
2023/09/09 00:44:02;;;;;;;6.50;4.35;;;;;;;;;;4382413;32;316929;-79
2023/09/09 00:46:32;;;;;;;9.10;4.15;;;;;;;;;;4374509;32;316830;-81
2023/09/09 00:49:00;;;;;;;8.60;4.50;;;;;;;;;;4381622;32;316594;-79
2023/09/09 00:51:30;;;;;;;8.23;4.07;;;;;;;;;;4374449;32;316884;-79
2023/09/09 00:53:57;;;;;;;11.02;4.03;;;;;;;;;;4360349;32;316838;-79
2023/09/09 00:56:24;;;;;;;5.22;4.18;;;;;;;;;;4374289;32;318156;-79
2023/09/09 00:58:53;;;;;;;6.60;3.97;;;;;;;;;;4382814;32;344745;-81
2023/09/09 01:01:20;;;;;;;8.73;4.85;;;;;;;;;;4371442;32;316792;-80
2023/09/09 01:03:52;;;;;;;11.35;7.75;;;;;;;;;;4379360;32;316885;-79
2023/09/09 01:06:21;;;;;;;13.18;7.15;;;;;;;;;;4374690;32;323791;-80
2023/09/09 01:08:48;;;;;;;13.45;8.40;;;;;;;;;;4384036;32;317898;-80
2023/09/09 01:11:16;;;;;;;16.48;13.45;;;;;;;;;;4384815;32;318006;-79
2023/09/09 01:13:43;;;;;;;18.40;15.63;;;;;;;;;;4366747;32;418366;-79
2023/09/09 01:16:11;;;;;;;19.67;15.15;;;;;;;;;;4383890;32;319001;-81
2023/09/09 01:18:38;;;;;;;12.48;10.18;;;;;;;;;;4371190;32;318761;-80
2023/09/09 01:21:09;;;;;;;9.27;7.80;;;;;;;;;;4384381;32;318676;-79
2023/09/09 01:23:39;;;;;;;6.53;5.65;;;;;;;;;;4370425;32;317041;-79
2023/09/09 01:26:06;;;;;;;8.70;6.50;;;;;;;;;;4382427;32;315570;-79
2023/09/09 01:28:33;;;;;;;13.77;9.57;;;;;;;;;;4374132;32;317079;-79
2023/09/09 01:31:01;;;;;;;8.73;7.25;;;;;;;;;;4383753;32;317909;-79
2023/09/09 01:33:30;;;;;;;9.02;5.57;;;;;;;;;;4371911;32;317153;-82
2023/09/09 01:35:57;;;;;;;7.68;4.43;;;;;;;;;;4383837;32;316678;-79
2023/09/09 01:38:24;;;;;;;9.23;5.32;;;;;;;;;;4373545;32;316667;-79
2023/09/09 01:40:53;;;;;;;12.32;4.30;;;;;;;;;;4384892;32;316879;-79
2023/09/09 01:43:20;;;;;;;8.13;3.92;;;;;;;;;;4373397;32;317813;-80
2023/09/09 01:45:50;;;;;;;7.32;4.60;;;;;;;;;;4378041;32;316762;-81
2023/09/09 01:48:17;;;;;;;9.27;5.15;;;;;;;;;;4378826;32;317000;-79
2023/09/09 01:50:46;;;;;;;7.57;3.72;;;;;;;;;;4383733;32;341144;-79
2023/09/09 01:53:13;;;;;;;8.77;4.18;;;;;;;;;;4381878;32;349673;-79
2023/09/09 01:55:40;;;;;;;10.73;4.28;;;;;;;;;;4369429;32;317033;-79
2023/09/09 01:58:09;;;;;;;7.78;4.82;;;;;;;;;;4384874;32;317893;-79
2023/09/09 02:00:36;;;;;;;5.15;4.22;;;;;;;;;;4373223;32;316921;-81
2023/09/09 02:03:04;;;;;;;8.00;4.22;;;;;;;;;;4383793;32;317081;-81
2023/09/09 02:05:32;;;;;;;7.82;4.00;;;;;;;;;;4370261;32;331495;-83
2023/09/09 02:07:59;;;;;;;6.45;4.65;;;;;;;;;;4383241;32;316816;-79
2023/09/09 02:10:27;;;;;;;8.93;4.20;;;;;;;;;;4372029;32;316678;-79
2023/09/09 02:12:54;;;;;;;8.00;4.00;;;;;;;;;;4382567;32;316678;-79
2023/09/09 02:15:23;;;;;;;9.40;5.18;;;;;;;;;;4372198;32;316567;-80
2023/09/09 02:17:50;;;;;;;6.35;4.32;;;;;;;;;;4379399;32;316883;-83
2023/09/09 02:20:18;;;;;;;6.32;4.65;;;;;;;;;;4373997;32;316773;-79
2023/09/09 02:22:45;;;;;;;6.55;4.43;;;;;;;;;;4383488;32;316854;-79
2023/09/09 02:25:12;;;;;;;7.00;3.95;;;;;;;;;;4383022;32;316632;-79
2023/09/09 02:27:40;;;;;;;7.70;4.70;;;;;;;;;;4369524;32;317018;-79
2023/09/09 02:30:08;;;;;;;6.95;4.25;;;;;;;;;;4383877;32;316760;-81
2023/09/09 02:32:37;;;;;;;6.57;4.40;;;;;;;;;;4372432;32;316942;-80
2023/09/09 02:35:07;;;;;;;6.18;4.35;;;;;;;;;;4383188;32;316678;-81
2023/09/09 02:37:34;;;;;;;9.80;4.93;;;;;;;;;;4368379;32;316738;-82
2023/09/09 02:40:03;;;;;;;8.98;4.57;;;;;;;;;;4384669;32;316850;-79
2023/09/09 02:42:31;;;;;;;10.70;4.40;;;;;;;;;;4374092;32;317545;-79
2023/09/09 02:44:58;;;;;;;6.68;4.50;;;;;;;;;;4382078;32;334984;-80
2023/09/09 02:47:25;;;;;;;9.73;5.35;;;;;;;;;;4371996;32;316891;-79
2023/09/09 02:49:54;;;;;;;6.20;4.47;;;;;;;;;;4380451;32;316847;-79
2023/09/09 02:52:22;;;;;;;6.65;4.55;;;;;;;;;;4371855;32;316961;-80
2023/09/09 02:54:50;;;;;;;5.32;4.10;;;;;;;;;;4382301;32;328562;-79
2023/09/09 02:57:17;;;;;;;8.77;4.37;;;;;;;;;;4375084;32;316541;-80
2023/09/09 02:59:45;;;;;;;9.25;5.12;;;;;;;;;;4380290;32;316562;-79
2023/09/09 03:02:12;;;;;;;7.75;4.85;;;;;;;;;;4380831;32;348605;-79
2023/09/09 03:04:39;;;;;;;9.60;5.78;;;;;;;;;;4372546;32;317149;-84
2023/09/09 03:07:09;;;;;;;11.90;5.35;;;;;;;;;;4383660;32;316731;-84
2023/09/09 03:09:36;;;;;;;6.45;4.50;;;;;;;;;;4369804;32;317993;-84
2023/09/09 03:12:05;;;;;;;8.38;5.62;;;;;;;;;;4383299;32;316695;-80
2023/09/09 03:14:32;;;;;;;11.48;4.85;;;;;;;;;;4370848;32;342228;-80
2023/09/09 03:16:59;;;;;;;8.50;4.53;;;;;;;;;;4381484;32;317954;-80
2023/09/09 03:19:28;;;;;;;8.45;5.07;;;;;;;;;;4373645;32;335430;-82
2023/09/09 03:21:57;;;;;;;9.27;4.75;;;;;;;;;;4379434;32;316906;-82
2023/09/09 03:24:26;;;;;;;8.90;5.20;;;;;;;;;;4370709;32;317186;-82
2023/09/09 03:26:54;;;;;;;10.63;5.87;;;;;;;;;;4383317;32;316789;-80
2023/09/09 03:29:21;;;;;;;7.53;5.12;;;;;;;;;;4371981;32;317847;-83
2023/09/09 03:31:49;;;;;;;9.65;5.03;;;;;;;;;;4380194;32;316677;-80
2023/09/09 03:34:16;;;;;;;9.18;4.82;;;;;;;;;;4381624;32;317064;-81
2023/09/09 03:36:44;;;;;;;6.80;4.80;;;;;;;;;;4369652;32;416525;-81
2023/09/09 03:39:12;;;;;;;7.82;5.07;;;;;;;;;;4382514;32;316941;-82
2023/09/09 03:41:41;;;;;;;8.02;4.87;;;;;;;;;;4368888;32;351388;-81
2023/09/09 03:44:08;;;;;;;8.18;5.12;;;;;;;;;;4382103;32;316504;-80
2023/09/09 03:46:36;;;;;;;7.15;4.22;;;;;;;;;;4372726;32;316810;-80
2023/09/09 03:49:03;;;;;;;5.45;4.40;;;;;;;;;;4382784;32;343605;-80
2023/09/09 03:51:31;;;;;;;5.85;4.15;;;;;;;;;;4368739;32;316589;-82
2023/09/09 03:53:58;;;;;;;7.75;6.80;;;;;;;;;;4382951;32;333497;-78
2023/09/09 03:56:25;;;;;;;16.75;9.35;;;;;;;;;;4370126;32;316991;-79
2023/09/09 03:58:55;;;;;;;13.43;11.68;;;;;;;;;;4384082;32;318043;-78
2023/09/09 04:01:23;;;;;;;7.82;6.95;;;;;;;;;;4371478;32;319030;-82
2023/09/09 04:03:49;;;;;;;10.63;5.45;;;;;;;;;;4380485;32;317030;-84
2023/09/09 04:06:19;;;;;;;7.03;5.93;;;;;;;;;;4380958;32;317846;-83
2023/09/09 04:08:46;;;;;;;10.77;7.40;;;;;;;;;;4369887;32;386544;-79
2023/09/09 04:11:14;;;;;;;10.32;5.85;;;;;;;;;;4385702;32;317877;-79
2023/09/09 04:13:41;;;;;;;11.00;6.37;;;;;;;;;;4368443;32;317675;-81
2023/09/09 04:16:10;;;;;;;9.27;6.18;;;;;;;;;;4385554;32;317822;-81
2023/09/09 04:18:37;;;;;;;12.77;6.53;;;;;;;;;;4375784;32;317479;-80
2023/09/09 04:21:05;;;;;;;9.35;5.75;;;;;;;;;;4385591;32;317786;-82
2023/09/09 04:23:32;;;;;;;12.88;6.82;;;;;;;;;;4372496;32;316618;-80
2023/09/09 04:26:00;;;;;;;13.35;6.12;;;;;;;;;;4384620;32;317877;-81
2023/09/09 04:28:27;;;;;;;8.48;5.50;;;;;;;;;;4372388;32;322995;-81
2023/09/09 04:30:54;;;;;;;10.93;5.37;;;;;;;;;;4384835;32;316600;-80
2023/09/09 04:33:23;;;;;;;12.30;6.68;;;;;;;;;;4375698;32;317778;-80
2023/09/09 04:35:51;;;;;;;16.00;7.30;;;;;;;;;;4380777;32;317810;-82
2023/09/09 04:38:19;;;;;;;18.35;9.00;;;;;;;;;;4373277;32;329265;-80
2023/09/09 04:40:46;;;;;;;22.40;11.30;;;;;;;;;;4384795;32;317716;-82
2023/09/09 04:43:14;;;;;;;16.50;9.68;;;;;;;;;;4385894;32;319010;-81
2023/09/09 04:45:41;;;;;;;17.98;7.37;;;;;;;;;;4369079;32;335276;-79
2023/09/09 04:48:10;;;;;;;15.00;9.20;;;;;;;;;;4383570;32;317993;-79
2023/09/09 04:50:39;;;;;;;22.60;16.00;;;;;;;;;;4373673;32;317760;-83
2023/09/09 04:53:07;;;;;;;69.40;56.33;;;;;;;;;;4384153;32;318892;-82
2023/09/09 04:55:34;;;;;;;17.80;14.37;;;;;;;;;;4367976;32;340776;-82
2023/09/09 04:58:02;;;;;;;11.43;7.68;;;;;;;;;;4384875;32;318934;-79
2023/09/09 05:00:29;;;;;;;16.40;8.35;;;;;;;;;;4372364;32;317813;-79
2023/09/09 05:02:56;;;;;;;13.77;6.72;;;;;;;;;;4382756;32;318034;-79
2023/09/09 05:05:24;;;;;;;10.65;6.70;;;;;;;;;;4375456;32;318075;-81
2023/09/09 05:07:52;;;;;;;18.77;7.45;;;;;;;;;;4380723;32;317827;-82
2023/09/09 05:10:21;;;;;;;8.27;5.95;;;;;;;;;;4375738;32;317862;-82
2023/09/09 05:12:49;;;;;;;14.60;6.32;;;;;;;;;;4384753;32;316666;-81
2023/09/09 05:15:16;;;;;;;10.38;7.15;;;;;;;;;;4385011;32;318041;-80
2023/09/09 05:17:44;;;;;;;10.95;5.97;;;;;;;;;;4368032;32;417151;-79
2023/09/09 05:20:13;;;;;;;8.30;5.50;;;;;;;;;;4384808;32;322922;-79
2023/09/09 05:22:41;;;;;;;14.60;5.87;;;;;;;;;;4374276;32;317080;-79
2023/09/09 05:25:10;;;;;;;8.98;5.72;;;;;;;;;;4382918;32;358562;-80
2023/09/09 05:27:37;;;;;;;8.40;5.53;;;;;;;;;;4370301;32;355589;-80
2023/09/09 05:30:06;;;;;;;9.80;5.47;;;;;;;;;;4383012;32;316558;-79
2023/09/09 05:32:34;;;;;;;9.25;5.75;;;;;;;;;;4361446;32;376747;-81
2023/09/09 05:35:01;;;;;;;10.40;5.70;;;;;;;;;;4380027;32;317164;-79
2023/09/09 05:37:30;;;;;;;8.55;5.93;;;;;;;;;;4383625;32;317772;-80
2023/09/09 05:39:57;;;;;;;8.32;6.53;;;;;;;;;;4371227;32;416305;-80
2023/09/09 05:42:26;;;;;;;9.80;6.30;;;;;;;;;;4383978;32;316823;-81
2023/09/09 05:44:54;;;;;;;11.60;6.80;;;;;;;;;;4371630;32;316994;-79
2023/09/09 05:47:21;;;;;;;10.52;6.97;;;;;;;;;;4385051;32;317750;-79
2023/09/09 05:49:49;;;;;;;15.32;8.05;;;;;;;;;;4371557;32;317788;-81
2023/09/09 05:52:16;;;;;;;10.10;6.85;;;;;;;;;;4383936;32;317890;-82
2023/09/09 05:54:47;;;;;;;15.13;7.75;;;;;;;;;;4371271;32;318028;-81
2023/09/09 05:57:14;;;;;;;10.95;6.32;;;;;;;;;;4382332;32;317899;-80
2023/09/09 05:59:43;;;;;;;18.35;6.40;;;;;;;;;;4373939;32;317834;-79
2023/09/09 06:02:11;;;;;;;9.38;7.25;;;;;;;;;;4384040;32;316884;-78
2023/09/09 06:04:38;;;;;;;12.85;6.87;;;;;;;;;;4374152;32;316833;-80
2023/09/09 06:07:06;;;;;;;10.82;6.35;;;;;;;;;;4378360;32;353616;-79
2023/09/09 06:09:34;;;;;;;8.57;5.95;;;;;;;;;;4372564;32;317863;-82
2023/09/09 06:12:02;;;;;;;19.08;6.32;;;;;;;;;;4383693;32;316761;-82
2023/09/09 06:14:30;;;;;;;12.05;5.75;;;;;;;;;;4383351;32;317636;-83
2023/09/09 06:16:59;;;;;;;20.35;7.07;;;;;;;;;;4367219;32;417306;-82
2023/09/09 06:19:26;;;;;;;16.02;6.25;;;;;;;;;;4382590;32;327128;-82
2023/09/09 06:21:54;;;;;;;8.77;6.03;;;;;;;;;;4370752;32;317777;-82
2023/09/09 06:24:21;;;;;;;8.65;5.53;;;;;;;;;;4382442;32;316794;-83
2023/09/09 06:26:48;;;;;;;11.07;5.28;;;;;;;;;;4366650;32;316860;-81
2023/09/09 06:29:16;;;;;;;15.95;6.25;;;;;;;;;;4382265;32;317806;-78
2023/09/09 06:31:43;;;;;;;8.00;5.53;;;;;;;;;;4371122;32;355201;-78
2023/09/09 06:34:12;;;;;;;8.30;5.80;;;;;;;;;;4384413;32;316774;-78
2023/09/09 06:36:40;;;;;;;9.25;5.57;;;;;;;;;;4371411;32;316823;-78
2023/09/09 06:39:08;;;;;;;7.60;5.53;;;;;;;;;;4381417;32;316936;-78
2023/09/09 06:41:37;;;;;;;12.30;5.43;;;;;;;;;;4368787;32;317068;-81
2023/09/09 06:44:05;;;;;;;8.13;5.75;;;;;;;;;;4383296;32;317980;-78
2023/09/09 06:46:32;;;;;;;7.85;5.15;;;;;;;;;;4372263;32;316874;-78
2023/09/09 06:49:00;;;;;;;8.68;5.28;;;;;;;;;;4384016;32;316739;-77
2023/09/09 06:51:28;;;;;;;8.32;5.60;;;;;;;;;;4371404;32;317105;-82
2023/09/09 06:53:56;;;;;;;6.95;5.15;;;;;;;;;;4379645;32;317024;-78
2023/09/09 06:56:23;;;;;;;10.52;5.05;;;;;;;;;;4371746;32;375403;-79
2023/09/09 06:58:50;;;;;;;8.98;5.32;;;;;;;;;;4382107;32;317996;-80
2023/09/09 07:01:18;;;;;;;7.43;4.28;;;;;;;;;;4381991;32;316813;-80
2023/09/09 07:03:45;;;;;;;4.78;4.10;;;;;;;;;;4379793;32;316799;-78
2023/09/09 07:06:13;;;;;;;13.68;5.35;;;;;;;;;;4383834;32;316934;-78
2023/09/09 07:08:42;;;;;;;6.00;5.00;;;;;;;;;;4367354;32;418771;-79
2023/09/09 07:11:09;;;;;;;9.82;4.65;;;;;;;;;;4379198;32;316775;-78
2023/09/09 07:13:36;;;;;;;5.65;4.78;;;;;;;;;;4369602;32;316823;-77
2023/09/09 07:16:04;;;;;;;4.65;4.00;;;;;;;;;;4381424;32;316900;-78
2023/09/09 07:18:31;;;;;;;6.40;3.80;;;;;;;;;;4366780;32;317320;-78
2023/09/09 07:20:58;;;;;;;7.85;3.90;;;;;;;;;;4367140;32;336249;-78
2023/09/09 07:23:26;;;;;;;5.05;3.53;;;;;;;;;;4381832;32;316832;-78
2023/09/09 07:25:55;;;;;;;6.97;3.60;;;;;;;;;;4369764;32;317066;-78
2023/09/09 07:28:23;;;;;;;5.57;3.87;;;;;;;;;;4380164;32;316732;-79
2023/09/09 07:30:52;;;;;;;6.65;3.92;;;;;;;;;;4368102;32;317124;-82
2023/09/09 07:33:20;;;;;;;9.30;4.55;;;;;;;;;;4382003;32;317067;-79
2023/09/09 07:35:47;;;;;;;9.80;3.60;;;;;;;;;;4370842;32;351888;-80
2023/09/09 07:38:15;;;;;;;7.20;5.10;;;;;;;;;;4381797;32;317029;-89
2023/09/09 07:40:43;;;;;;;5.20;4.10;;;;;;;;;;4370387;32;316628;-86
2023/09/09 07:43:13;;;;;;;6.75;3.67;;;;;;;;;;4375633;32;316751;-81
2023/09/09 07:46:40;;;;;;;9.85;6.00;;;;;;;;;;4495641;31;20369;-83
2023/09/09 07:49:08;;;;;;;5.18;3.83;;;;;;;;;;4481459;32;20506;-81
2023/09/09 07:52:25;;;;;;;3.50;2.85;;;;;;;;;;4409923;31;20476;-81
2023/09/09 07:54:53;;;;;;;4.78;3.15;;;;;;;;;;4391911;32;20661;-83
2023/09/09 07:57:20;;;;;;;7.82;4.05;;;;;;;;;;4397171;32;20550;-80
2023/09/09 07:59:48;;;;;;;5.80;3.60;;;;;;;;;;4400307;32;20241;-80
2023/09/09 08:02:16;;;;;;;5.90;3.78;;;;;;;;;;4402126;32;20741;-82
2023/09/09 08:04:43;;;;;;;6.03;3.12;;;;;;;;;;4401938;32;20562;-84
2023/09/09 08:07:11;;;;;;;6.93;2.97;;;;;;;;;;4398075;32;20948;-80
2023/09/09 08:09:40;;;;;;;5.00;3.42;;;;;;;;;;4401819;32;20588;-81
2023/09/09 08:12:08;;;;;;;9.35;3.58;;;;;;;;;;4401345;32;20672;-79
2023/09/09 08:14:36;;;;;;;7.75;3.10;;;;;;;;;;4401326;32;20643;-83
2023/09/09 08:17:03;;;;;;;8.85;3.40;;;;;;;;;;4398790;32;20567;-81
2023/09/09 08:19:30;;;;;;;9.35;3.83;;;;;;;;;;4400198;32;20419;-82
2023/09/09 08:21:58;;;;;;;4.82;3.00;;;;;;;;;;4401642;32;20305;-82
2023/09/09 08:24:25;;;;;;;4.18;3.10;;;;;;;;;;4404072;32;20741;-80
2023/09/09 08:26:54;;;;;;;8.15;3.47;;;;;;;;;;4404006;32;20579;-82
2023/09/09 08:29:21;;;;;;;4.50;3.10;;;;;;;;;;4404082;32;20539;-81
2023/09/09 08:31:49;;;;;;;6.53;2.75;;;;;;;;;;4403752;32;20570;-77
2023/09/09 08:34:16;;;;;;;7.70;3.25;;;;;;;;;;4403910;32;20692;-84
2023/09/09 08:36:43;;;;;;;4.75;3.40;;;;;;;;;;4403840;32;20651;-77
2023/09/09 08:39:11;;;;;;;4.65;3.20;;;;;;;;;;4403961;32;20579;-77
2023/09/09 08:41:49;;;;;;;5.50;2.95;;;;;;;;;;4403832;32;20652;-77
2023/09/09 08:44:29;;;;;;;8.32;3.35;;;;;;;;;;4403904;32;20327;-89
2023/09/09 08:46:57;;;;;;;6.78;3.90;;;;;;;;;;4403650;32;20528;-77
2023/09/09 08:49:28;;;;;;;4.32;2.90;;;;;;;;;;4403832;32;20601;-77
2023/09/09 08:52:03;;;;;;;6.87;2.87;;;;;;;;;;4403315;32;20676;-77
2023/09/09 08:54:30;;;;;;;4.32;2.70;;;;;;;;;;4403688;32;20618;-77
2023/09/09 08:56:59;;;;;;;6.28;2.75;;;;;;;;;;4403434;32;20658;-77
2023/09/09 08:59:29;;;;;;;8.38;2.58;;;;;;;;;;4403489;32;20613;-76
2023/09/09 09:01:58;;;;;;;3.65;2.55;;;;;;;;;;4400756;32;20731;-77
2023/09/09 09:04:29;;;;;;;4.28;2.60;;;;;;;;;;4393373;32;20704;-77
2023/09/09 09:06:58;;;;;;;4.75;2.92;;;;;;;;;;4393233;32;20684;-77
2023/09/09 09:09:25;;;;;;;10.65;3.28;;;;;;;;;;4393252;32;20725;-76
2023/09/09 09:11:54;;;;;;;3.70;2.62;;;;;;;;;;4393147;32;20570;-76
2023/09/09 09:14:22;;;;;;;6.47;2.40;;;;;;;;;;4393163;32;20266;-82
2023/09/09 09:16:51;;;;;;;5.12;2.65;;;;;;;;;;4393203;32;20635;-81
2023/09/09 09:19:21;;;;;;;3.97;2.67;;;;;;;;;;4393576;32;20592;-78
2023/09/09 09:21:49;;;;;;;7.37;3.03;;;;;;;;;;4392959;32;20558;-77
2023/09/09 09:24:16;;;;;;;4.65;2.70;;;;;;;;;;4392882;32;20583;-80
2023/09/09 09:26:43;;;;;;;4.97;3.12;;;;;;;;;;4392638;32;20571;-80
2023/09/09 09:29:11;;;;;;;4.78;2.55;;;;;;;;;;4392789;32;20616;-83
2023/09/09 09:31:38;;;;;;;4.95;2.40;;;;;;;;;;4392785;32;20577;-83
2023/09/09 09:34:09;;;;;;;9.93;2.53;;;;;;;;;;4392929;32;20737;-81
2023/09/09 09:36:37;;;;;;;3.12;2.55;;;;;;;;;;4392778;32;20302;-79
2023/09/09 09:39:10;;;;;;;8.23;3.00;;;;;;;;;;4392972;32;20607;-80
2023/09/09 09:59:50;;;;;;;12.43;5.72;;;;;;;;;;4452792;31;20371;-65
2023/09/09 10:02:18;;;;;;;9.70;4.37;;;;;;;;;;4413643;32;316739;-56
2023/09/09 10:15:41;;;;;;;7.12;2.55;;;;;;;;;;4384566;32;20377;-85
2023/09/09 10:18:09;;;;;;;7.65;2.33;;;;;;;;;;4359194;32;316045;-86
2023/09/09 10:20:37;;;;;;;7.50;2.33;;;;;;;;;;4356346;32;416048;-81
2023/09/09 10:23:07;;;;;;;4.07;2.12;;;;;;;;;;4367946;32;316911;-80
2023/09/09 10:25:35;;;;;;;8.65;2.70;;;;;;;;;;4353614;32;324664;-81
2023/09/09 10:28:04;;;;;;;4.70;2.33;;;;;;;;;;4340451;32;316665;-81
2023/09/09 10:30:32;;;;;;;2.45;1.95;;;;;;;;;;4362255;32;316537;-85
2023/09/09 10:33:01;;;;;;;4.40;2.62;;;;;;;;;;4379105;32;316351;-82
2023/09/09 10:35:30;;;;;;;3.05;2.35;;;;;;;;;;4404171;32;20536;-80
2023/09/09 10:37:58;;;;;;;7.45;2.45;;;;;;;;;;4404077;32;20542;-83
2023/09/09 10:40:27;;;;;;;4.65;2.20;;;;;;;;;;4390528;32;20646;-83
2023/09/09 10:42:55;;;;;;;5.57;2.12;;;;;;;;;;4404101;32;20576;-82
2023/09/09 10:45:27;;;;;;;3.92;2.20;;;;;;;;;;4404169;32;20582;-83
2023/09/09 10:48:03;;;;;;;7.12;2.47;;;;;;;;;;4403975;32;20603;-82
2023/09/09 10:50:44;;;;;;;2.75;2.28;;;;;;;;;;4403996;32;20562;-81
2023/09/09 10:53:19;;;;;;;4.87;2.30;;;;;;;;;;4404108;32;20328;-82
2023/09/09 10:55:48;;;;;;;3.80;1.92;;;;;;;;;;4404381;32;20605;-81
2023/09/09 10:58:19;;;;;;;8.48;2.10;;;;;;;;;;4403957;32;20592;-84
2023/09/09 11:00:48;;;;;;;12.27;4.05;;;;;;;;;;4403895;32;20590;-83
2023/09/09 11:03:22;;;;;;;3.08;2.40;;;;;;;;;;4403776;32;20655;-84
2023/09/09 11:05:59;;;;;;;4.03;2.10;;;;;;;;;;4403974;32;20605;-85
2023/09/09 11:08:32;;;;;;;4.18;2.45;;;;;;;;;;4390730;32;20700;-81
2023/09/09 11:11:25;;;;;;;4.90;2.17;;;;;;;;;;4403890;32;20588;-86
2023/09/09 11:13:54;;;;;;;6.75;2.42;;;;;;;;;;4401316;32;20590;-83
2023/09/09 11:16:32;;;;;;;3.25;2.10;;;;;;;;;;4403561;32;20697;-81
2023/09/09 11:19:03;;;;;;;10.57;2.50;;;;;;;;;;4332457;32;315607;-80
2023/09/09 11:21:34;;;;;;;6.90;2.55;;;;;;;;;;4365554;32;317815;-80
2023/09/09 11:24:04;;;;;;;3.83;2.25;;;;;;;;;;4353578;32;316740;-82
2023/09/09 11:26:32;;;;;;;3.35;2.33;;;;;;;;;;4355943;32;316719;-83
2023/09/09 11:29:01;;;;;;;4.03;2.12;;;;;;;;;;4344769;32;316905;-80
2023/09/09 11:31:30;;;;;;;5.30;2.40;;;;;;;;;;4352124;32;340633;-82
2023/09/09 11:33:57;;;;;;;5.60;1.77;;;;;;;;;;4344300;32;316354;-81
2023/09/09 11:36:27;;;;;;;4.70;1.87;;;;;;;;;;4351395;32;352831;-80
2023/09/09 11:38:57;;;;;;;3.87;2.28;;;;;;;;;;4342830;32;316910;-81
2023/09/09 11:41:25;;;;;;;5.97;2.40;;;;;;;;;;4354424;32;354705;-86
2023/09/09 11:44:04;;;;;;;2.37;2.05;;;;;;;;;;4339772;32;331479;-86
2023/09/09 11:46:39;;;;;;;3.25;2.15;;;;;;;;;;4354620;32;316928;-86
2023/09/09 11:49:07;;;;;;;2.60;1.60;;;;;;;;;;4345546;32;316861;-87
2023/09/09 11:51:37;;;;;;;9.00;2.05;;;;;;;;;;4355604;32;316566;-86
2023/09/09 11:54:07;;;;;;;7.78;2.00;;;;;;;;;;4341049;32;316840;-85
2023/09/09 11:56:36;;;;;;;6.03;2.00;;;;;;;;;;4350253;32;319842;-82
2023/09/09 11:59:07;;;;;;;4.72;2.15;;;;;;;;;;4343220;32;316894;-87
2023/09/09 12:01:44;;;;;;;7.12;1.92;;;;;;;;;;4355572;32;317163;-87
2023/09/09 12:04:12;;;;;;;7.35;2.60;;;;;;;;;;4340701;32;316691;-87
2023/09/09 12:06:46;;;;;;;4.20;2.28;;;;;;;;;;4353896;32;317262;-85
2023/09/09 12:09:14;;;;;;;6.32;2.65;;;;;;;;;;4342686;32;316957;-84
2023/09/09 12:11:43;;;;;;;2.12;1.73;;;;;;;;;;4352973;32;316784;-84
2023/09/09 12:14:12;;;;;;;7.75;2.03;;;;;;;;;;4340788;32;316864;-85
2023/09/09 12:16:44;;;;;;;6.62;2.28;;;;;;;;;;4354618;32;316641;-85
2023/09/09 12:19:13;;;;;;;5.97;2.00;;;;;;;;;;4343619;32;317063;-82
2023/09/09 12:21:48;;;;;;;3.85;1.90;;;;;;;;;;4354905;32;316684;-86
2023/09/09 12:24:16;;;;;;;3.15;2.08;;;;;;;;;;4341077;32;316856;-86
2023/09/09 12:26:52;;;;;;;8.45;2.00;;;;;;;;;;4352576;32;316952;-84
2023/09/09 12:29:19;;;;;;;4.57;1.58;;;;;;;;;;4339935;32;416335;-82
2023/09/09 12:31:54;;;;;;;2.83;1.92;;;;;;;;;;4354639;32;316836;-82
2023/09/09 12:34:23;;;;;;;4.47;1.92;;;;;;;;;;4336321;32;416571;-83
2023/09/09 12:36:56;;;;;;;5.97;1.75;;;;;;;;;;4352778;32;316900;-84
2023/09/09 12:39:25;;;;;;;4.07;2.03;;;;;;;;;;4338859;32;416091;-84
2023/09/09 12:41:59;;;;;;;5.12;1.75;;;;;;;;;;4353269;32;316974;-85
2023/09/09 12:44:27;;;;;;;2.80;1.73;;;;;;;;;;4338823;32;387387;-84
2023/09/09 12:46:54;;;;;;;3.25;1.70;;;;;;;;;;4343112;32;316809;-84
2023/09/09 12:49:22;;;;;;;6.00;1.77;;;;;;;;;;4352551;32;333177;-84
2023/09/09 12:51:51;;;;;;;3.42;2.10;;;;;;;;;;4353563;32;316710;-84
2023/09/09 12:54:18;;;;;;;4.93;1.87;;;;;;;;;;4339477;32;416133;-84
2023/09/09 12:56:46;;;;;;;4.45;2.30;;;;;;;;;;4352528;32;316840;-85
2023/09/09 12:59:14;;;;;;;7.85;2.20;;;;;;;;;;4342715;32;316811;-83
2023/09/09 13:01:41;;;;;;;4.25;2.05;;;;;;;;;;4352607;32;316929;-87
2023/09/09 13:04:08;;;;;;;3.42;1.98;;;;;;;;;;4341432;32;316482;-87
2023/09/09 13:06:36;;;;;;;2.75;1.73;;;;;;;;;;4352957;32;316767;-87
2023/09/09 13:09:05;;;;;;;3.17;2.25;;;;;;;;;;4340907;32;356159;-85
2023/09/09 13:11:32;;;;;;;5.75;1.90;;;;;;;;;;4352271;32;355795;-86
2023/09/09 13:14:01;;;;;;;8.23;1.83;;;;;;;;;;4342727;32;316896;-89
2023/09/09 13:16:28;;;;;;;5.40;1.60;;;;;;;;;;4352116;32;317390;-86
2023/09/09 13:18:55;;;;;;;6.20;2.05;;;;;;;;;;4341563;32;317275;-86
2023/09/09 13:21:23;;;;;;;5.12;1.98;;;;;;;;;;4353695;32;316493;-86
2023/09/09 13:23:50;;;;;;;5.78;1.50;;;;;;;;;;4352619;32;316826;-86
2023/09/09 13:26:19;;;;;;;5.80;2.85;;;;;;;;;;4338154;32;386215;-84
2023/09/09 13:28:46;;;;;;;3.60;2.28;;;;;;;;;;4352648;32;316790;-84
2023/09/09 13:31:13;;;;;;;2.70;1.90;;;;;;;;;;4343451;32;316747;-85
2023/09/09 13:33:41;;;;;;;2.22;1.80;;;;;;;;;;4354890;32;316705;-85
2023/09/09 13:36:08;;;;;;;8.98;2.50;;;;;;;;;;4340620;32;317381;-85
2023/09/09 13:38:35;;;;;;;9.18;2.83;;;;;;;;;;4354760;32;317249;-84
2023/09/09 13:41:03;;;;;;;4.30;1.77;;;;;;;;;;4344723;32;316941;-84
2023/09/09 13:43:31;;;;;;;7.35;2.05;;;;;;;;;;4352432;32;316824;-85
2023/09/09 13:45:59;;;;;;;2.30;1.70;;;;;;;;;;4341971;32;316845;-85
2023/09/09 13:48:26;;;;;;;2.55;2.12;;;;;;;;;;4350557;32;316706;-85
2023/09/09 13:50:53;;;;;;;8.88;2.12;;;;;;;;;;4343196;32;317029;-85
2023/09/09 13:53:21;;;;;;;2.58;2.12;;;;;;;;;;4354409;32;316873;-85
2023/09/09 13:55:48;;;;;;;3.62;1.75;;;;;;;;;;4353601;32;317007;-85
2023/09/09 13:58:16;;;;;;;4.43;1.50;;;;;;;;;;4340596;32;316981;-87
2023/09/09 14:00:45;;;;;;;6.15;2.05;;;;;;;;;;4351314;32;316746;-87
2023/09/09 14:03:12;;;;;;;5.00;2.05;;;;;;;;;;4341226;32;316921;-86
2023/09/09 14:05:39;;;;;;;6.25;1.80;;;;;;;;;;4353602;32;317020;-86
2023/09/09 14:08:07;;;;;;;3.25;1.65;;;;;;;;;;4339148;32;317229;-87
2023/09/09 14:10:35;;;;;;;4.22;2.28;;;;;;;;;;4351824;32;316843;-87
2023/09/09 14:13:02;;;;;;;4.25;2.00;;;;;;;;;;4342309;32;316891;-87
2023/09/09 14:15:32;;;;;;;4.03;2.35;;;;;;;;;;4352941;32;316824;-87
2023/09/09 14:18:00;;;;;;;2.45;1.90;;;;;;;;;;4340780;32;316640;-92
2023/09/09 14:20:28;;;;;;;8.00;1.98;;;;;;;;;;4354303;32;321668;-87
2023/09/09 14:22:55;;;;;;;1.90;1.60;;;;;;;;;;4358800;27;317025;-86
2023/09/09 14:25:23;;;;;;;2.42;1.40;;;;;;;;;;4398583;32;316706;-84
2023/09/09 14:27:50;;;;;;;6.62;2.75;;;;;;;;;;4396438;32;316874;-85
2023/09/09 14:30:17;;;;;;;3.28;2.15;;;;;;;;;;4380480;32;417106;-84
2023/09/09 14:32:45;;;;;;;5.10;2.05;;;;;;;;;;4397870;32;317008;-85
2023/09/09 14:35:13;;;;;;;3.20;2.05;;;;;;;;;;4388304;32;316932;-88
2023/09/09 14:37:41;;;;;;;5.25;1.85;;;;;;;;;;4383442;32;316677;-87
2023/09/09 14:40:09;;;;;;;7.07;1.87;;;;;;;;;;4384418;32;317391;-85
2023/09/09 14:42:38;;;;;;;3.45;2.72;;;;;;;;;;4397058;32;316650;-88
2023/09/09 14:45:06;;;;;;;7.57;2.37;;;;;;;;;;4385819;32;317177;-88
2023/09/09 14:47:33;;;;;;;3.78;1.80;;;;;;;;;;4398025;32;317078;-86
2023/09/09 14:50:01;;;;;;;5.80;2.72;;;;;;;;;;4389611;32;316792;-86
2023/09/09 14:52:31;;;;;;;2.10;1.70;;;;;;;;;;4396508;32;316908;-85
2023/09/09 14:54:58;;;;;;;6.78;2.37;;;;;;;;;;4384734;32;344574;-85
2023/09/09 14:57:25;;;;;;;4.12;1.75;;;;;;;;;;4395688;32;317608;-88
2023/09/09 14:59:53;;;;;;;6.82;1.70;;;;;;;;;;4384367;32;317064;-85
2023/09/09 15:02:20;;;;;;;9.15;2.40;;;;;;;;;;4397182;32;316855;-85
2023/09/09 15:04:47;;;;;;;7.03;2.30;;;;;;;;;;4399723;32;316996;-85
2023/09/09 15:07:15;;;;;;;3.70;2.47;;;;;;;;;;4390048;32;317012;-85